createdAt,value
2018-12-27T00:00:59.241Z,63.60
2018-12-27T00:03:27.372Z,72.50
2018-12-27T00:05:55.637Z,63.53
2018-12-27T00:08:23.784Z,52.77
2018-12-27T00:10:52.204Z,52.37
2018-12-27T00:13:20.291Z,60.50
2018-12-27T00:15:49.541Z,66.67
2018-12-27T00:18:17.708Z,73.67
2018-12-27T00:20:45.901Z,97.33
2018-12-27T00:23:14.042Z,95.13
2018-12-27T00:25:42.652Z,92.87
2018-12-27T00:28:10.901Z,92.17
2018-12-27T00:30:39.472Z,85.37
2018-12-27T00:33:07.622Z,72.17
2018-12-27T00:35:35.991Z,76.83
2018-12-27T00:38:04.115Z,76.93
2018-12-27T00:40:32.312Z,76.07
2018-12-27T00:43:00.467Z,82.90
2018-12-27T00:45:29.804Z,85.07
2018-12-27T00:47:57.984Z,83.30
2018-12-27T00:50:27.245Z,80.10
2018-12-27T00:52:55.544Z,78.97
2018-12-27T00:55:23.789Z,89.47
2018-12-27T00:57:52.028Z,84.33
2018-12-27T01:00:20.208Z,83.20
2018-12-27T01:02:48.304Z,80.73
2018-12-27T01:05:16.551Z,78.47
2018-12-27T01:07:44.768Z,76.47
2018-12-27T01:10:13.059Z,75.53
2018-12-27T01:12:41.247Z,71.60
2018-12-27T01:15:09.347Z,82.00
2018-12-27T01:17:37.568Z,76.10
2018-12-27T01:20:05.660Z,80.57
2018-12-27T01:22:33.847Z,71.17
2018-12-27T01:25:01.943Z,78.40
2018-12-27T01:27:30.587Z,73.97
2018-12-27T01:29:58.745Z,70.10
2018-12-27T01:32:27.013Z,68.63
2018-12-27T01:34:55.229Z,83.50
2018-12-27T01:37:23.409Z,80.93
2018-12-27T01:39:52.544Z,69.37
2018-12-27T01:42:20.765Z,67.77
2018-12-27T01:44:48.867Z,81.37
2018-12-27T01:47:17.365Z,78.50
2018-12-27T01:49:45.564Z,68.77
2018-12-27T01:52:13.704Z,75.87
2018-12-27T01:54:41.880Z,80.53
2018-12-27T01:57:10.089Z,70.43
2018-12-27T01:59:38.207Z,78.33
2018-12-27T02:02:06.440Z,87.47
2018-12-27T02:04:34.533Z,75.97
2018-12-27T02:07:02.726Z,82.17
2018-12-27T02:09:30.965Z,70.03
2018-12-27T02:11:59.052Z,57.67
2018-12-27T02:14:27.280Z,55.33
2018-12-27T02:16:55.388Z,46.03
2018-12-27T02:19:23.601Z,37.93
2018-12-27T02:21:51.730Z,43.17
2018-12-27T02:24:23.123Z,44.43
2018-12-27T02:26:51.396Z,42.87
2018-12-27T02:29:19.680Z,47.87
2018-12-27T02:31:47.906Z,45.73
2018-12-27T02:34:16.113Z,52.17
2018-12-27T02:36:44.307Z,54.30
2018-12-27T02:39:12.446Z,49.70
2018-12-27T02:41:40.630Z,55.17
2018-12-27T02:44:08.741Z,56.47
2018-12-27T02:46:37.009Z,68.37
2018-12-27T02:49:05.115Z,56.43
2018-12-27T02:51:33.301Z,66.70
2018-12-27T02:54:01.538Z,65.33
2018-12-27T02:56:29.644Z,63.07
2018-12-27T02:58:59.173Z,62.87
2018-12-27T03:01:27.312Z,53.00
2018-12-27T03:03:55.538Z,55.03
2018-12-27T03:06:23.978Z,53.50
2018-12-27T03:08:52.109Z,65.07
2018-12-27T03:11:20.721Z,68.97
2018-12-27T03:13:49.213Z,74.27
2018-12-27T03:16:17.346Z,73.43
2018-12-27T03:18:45.785Z,78.20
2018-12-27T03:21:14.745Z,76.30
2018-12-27T03:23:42.938Z,71.70
2018-12-27T03:26:11.065Z,69.03
2018-12-27T03:28:39.552Z,77.73
2018-12-27T03:31:08.134Z,70.10
2018-12-27T03:33:36.280Z,71.00
2018-12-27T03:36:04.841Z,73.70
2018-12-27T03:38:33.646Z,80.70
2018-12-27T03:41:01.798Z,82.30
2018-12-27T03:43:29.953Z,85.43
2018-12-27T03:45:58.077Z,92.17
2018-12-27T03:48:26.325Z,90.67
2018-12-27T03:50:54.539Z,89.30
2018-12-27T03:53:22.674Z,83.93
2018-12-27T03:55:50.843Z,80.23
2018-12-27T03:58:18.995Z,79.10
2018-12-27T04:00:47.140Z,73.90
2018-12-27T04:03:17.185Z,72.13
2018-12-27T04:05:45.332Z,72.37
2018-12-27T04:08:13.526Z,70.70
2018-12-27T04:10:41.592Z,64.40
2018-12-27T04:13:09.766Z,68.33
2018-12-27T04:15:37.910Z,77.20
2018-12-27T04:18:06.109Z,72.57
2018-12-27T04:20:34.286Z,73.27
2018-12-27T04:23:02.500Z,74.00
2018-12-27T04:25:31.676Z,77.60
2018-12-27T04:27:59.811Z,80.40
2018-12-27T04:30:27.981Z,77.50
2018-12-27T04:32:56.672Z,69.40
2018-12-27T04:35:25.081Z,70.30
2018-12-27T04:37:53.304Z,69.30
2018-12-27T04:40:21.385Z,72.23
2018-12-27T04:42:49.739Z,71.70
2018-12-27T04:45:17.943Z,69.97
2018-12-27T04:47:46.098Z,68.33
2018-12-27T04:50:14.261Z,67.20
2018-12-27T04:52:42.411Z,74.47
2018-12-27T04:55:10.584Z,71.53
2018-12-27T04:57:38.759Z,67.50
2018-12-27T05:00:07.574Z,58.87
2018-12-27T05:02:35.751Z,64.57
2018-12-27T05:05:04.030Z,64.57
2018-12-27T05:07:33.543Z,58.60
2018-12-27T05:10:01.810Z,60.90
2018-12-27T05:12:30.057Z,58.07
2018-12-27T05:14:58.319Z,63.53
2018-12-27T05:17:26.482Z,61.17
2018-12-27T05:19:54.657Z,58.93
2018-12-27T05:22:22.949Z,60.70
2018-12-27T05:24:51.127Z,58.20
2018-12-27T05:27:19.261Z,59.53
2018-12-27T05:29:47.397Z,54.13
2018-12-27T05:32:15.567Z,58.73
2018-12-27T05:34:45.548Z,60.00
2018-12-27T05:37:13.577Z,53.93
2018-12-27T05:39:41.738Z,55.50
2018-12-27T05:42:09.809Z,53.50
2018-12-27T05:44:37.992Z,50.33
2018-12-27T05:47:06.162Z,48.93
2018-12-27T05:49:34.307Z,51.57
2018-12-27T05:52:02.464Z,48.53
2018-12-27T05:54:34.754Z,52.63
2018-12-27T05:57:03.036Z,57.70
2018-12-27T05:59:31.237Z,62.40
2018-12-27T06:01:59.402Z,69.40
2018-12-27T06:04:33.746Z,69.73
2018-12-27T06:06:57.448Z,80.13
2018-12-27T06:09:25.514Z,66.77
2018-12-27T06:11:53.645Z,73.30
2018-12-27T06:14:21.765Z,74.77
2018-12-27T06:16:50.058Z,67.00
2018-12-27T06:19:18.246Z,70.03
2018-12-27T06:21:46.426Z,75.43
2018-12-27T06:24:14.590Z,63.60
2018-12-27T06:26:42.626Z,64.27
2018-12-27T06:29:10.812Z,65.67
2018-12-27T06:31:38.834Z,72.20
2018-12-27T06:34:07.090Z,73.40
2018-12-27T06:36:35.314Z,69.07
2018-12-27T06:39:05.455Z,64.13
2018-12-27T06:41:33.650Z,66.57
2018-12-27T06:44:01.880Z,74.20
2018-12-27T06:46:30.057Z,72.30
2018-12-27T06:48:58.217Z,66.10
2018-12-27T06:51:26.442Z,67.70
2018-12-27T06:53:54.941Z,67.67
2018-12-27T06:56:23.111Z,72.17
2018-12-27T06:58:51.573Z,77.23
2018-12-27T07:01:19.776Z,60.77
2018-12-27T07:03:47.940Z,80.87
2018-12-27T07:06:16.117Z,68.50
2018-12-27T07:08:44.285Z,64.00
2018-12-27T07:11:12.810Z,66.23
2018-12-27T07:13:41.142Z,68.97
2018-12-27T07:16:09.266Z,65.17
2018-12-27T07:18:37.443Z,65.00
2018-12-27T07:21:05.715Z,65.50
2018-12-27T07:23:33.977Z,68.80
2018-12-27T07:26:03.248Z,60.90
2018-12-27T07:28:31.464Z,68.47
2018-12-27T07:30:59.525Z,67.73
2018-12-27T07:33:27.651Z,68.10
2018-12-27T07:35:56.125Z,65.97
2018-12-27T07:38:24.198Z,79.63
2018-12-27T07:40:52.687Z,66.70
2018-12-27T07:43:20.690Z,58.77
2018-12-27T07:45:48.805Z,56.60
2018-12-27T07:48:16.912Z,57.23
2018-12-27T07:50:45.017Z,56.07
2018-12-27T07:53:13.094Z,53.17
2018-12-27T07:55:41.369Z,49.90
2018-12-27T07:58:09.428Z,47.33
2018-12-27T08:00:37.641Z,54.93
2018-12-27T08:03:05.745Z,53.57
2018-12-27T08:05:33.961Z,52.83
2018-12-27T08:08:02.129Z,53.47
2018-12-27T08:10:30.293Z,54.40
2018-12-27T08:12:59.515Z,49.60
2018-12-27T08:15:27.781Z,58.30
2018-12-27T08:17:56.008Z,50.53
2018-12-27T08:20:24.289Z,51.07
2018-12-27T08:22:54.001Z,57.83
2018-12-27T08:25:23.173Z,51.60
2018-12-27T08:27:53.553Z,49.93
2018-12-27T08:30:22.056Z,46.97
2018-12-27T08:32:50.311Z,47.57
2018-12-27T08:35:18.417Z,46.03
2018-12-27T08:37:46.661Z,52.30
2018-12-27T08:40:15.265Z,49.73
2018-12-27T08:42:43.564Z,50.57
2018-12-27T08:45:11.716Z,50.73
2018-12-27T08:47:40.264Z,55.10
2018-12-27T08:50:08.409Z,55.77
2018-12-27T08:52:36.702Z,46.53
2018-12-27T08:55:05.481Z,51.40
2018-12-27T08:57:34.048Z,52.03
2018-12-27T09:00:02.165Z,47.30
2018-12-27T09:02:30.372Z,49.23
2018-12-27T09:05:01.375Z,57.33
2018-12-27T09:07:30.083Z,48.77
2018-12-27T09:09:58.773Z,48.97
2018-12-27T09:12:28.249Z,49.30
2018-12-27T09:14:56.495Z,46.87
2018-12-27T09:17:24.697Z,48.60
2018-12-27T09:19:52.861Z,48.77
2018-12-27T09:22:21.087Z,55.17
2018-12-27T09:24:49.317Z,53.40
2018-12-27T09:27:18.412Z,52.17
2018-12-27T09:29:46.581Z,54.83
2018-12-27T09:32:14.693Z,52.83
2018-12-27T09:34:44.091Z,59.50
2018-12-27T09:37:12.173Z,58.03
2018-12-27T09:39:40.375Z,60.40
2018-12-27T09:42:08.496Z,66.87
2018-12-27T09:44:36.650Z,55.17
2018-12-27T09:47:04.840Z,67.63
2018-12-27T09:49:32.989Z,71.17
2018-12-27T09:52:02.166Z,60.57
2018-12-27T09:54:30.584Z,63.23
2018-12-27T09:56:58.842Z,63.40
2018-12-27T09:59:27.039Z,59.13
2018-12-27T10:01:55.469Z,63.90
2018-12-27T10:04:24.078Z,62.80
2018-12-27T10:06:52.362Z,57.30
2018-12-27T10:09:20.600Z,62.47
2018-12-27T10:11:49.347Z,59.00
2018-12-27T10:14:17.473Z,57.13
2018-12-27T10:16:45.785Z,53.57
2018-12-27T10:19:14.139Z,53.70
2018-12-27T10:21:42.653Z,55.80
2018-12-27T10:24:10.830Z,52.10
2018-12-27T10:26:38.953Z,50.93
2018-12-27T10:29:07.246Z,55.03
2018-12-27T10:31:35.528Z,50.20
2018-12-27T10:34:03.660Z,48.63
2018-12-27T10:36:31.989Z,50.93
2018-12-27T10:39:06.178Z,52.50
2018-12-27T10:41:34.454Z,51.23
2018-12-27T10:44:02.729Z,46.83
2018-12-27T10:46:30.878Z,44.57
2018-12-27T10:48:59.220Z,47.60
2018-12-27T10:51:27.832Z,44.63
2018-12-27T10:53:56.119Z,43.47
2018-12-27T10:56:24.715Z,43.73
2018-12-27T10:58:53.141Z,41.70
2018-12-27T11:01:21.401Z,39.70
2018-12-27T11:03:49.625Z,41.83
2018-12-27T11:06:18.072Z,39.70
2018-12-27T11:08:46.338Z,38.20
2018-12-27T11:11:14.507Z,38.37
2018-12-27T11:13:42.791Z,33.50
2018-12-27T11:16:11.057Z,33.17
2018-12-27T11:18:39.172Z,40.50
2018-12-27T11:21:07.339Z,31.87
2018-12-27T11:23:35.705Z,33.07
2018-12-27T11:26:03.992Z,32.50
2018-12-27T11:28:32.172Z,30.80
2018-12-27T11:31:00.341Z,35.30
2018-12-27T11:33:29.117Z,35.47
2018-12-27T11:35:57.295Z,32.53
2018-12-27T11:38:25.560Z,37.13
2018-12-27T11:40:53.841Z,38.60
2018-12-27T11:43:22.702Z,40.67
2018-12-27T11:45:51.454Z,32.47
2018-12-27T11:48:19.558Z,30.03
2018-12-27T11:50:47.806Z,36.97
2018-12-27T11:53:16.226Z,33.23
2018-12-27T11:55:45.396Z,32.13
2018-12-27T11:58:13.481Z,29.53
2018-12-27T12:00:41.749Z,27.80
2018-12-27T12:03:10.199Z,33.50
2018-12-27T12:05:38.459Z,34.33
2018-12-27T12:08:06.747Z,31.30
2018-12-27T12:10:34.905Z,34.93
2018-12-27T12:13:03.342Z,29.63
2018-12-27T12:15:33.484Z,30.20
2018-12-27T12:18:01.792Z,25.03
2018-12-27T12:20:30.105Z,25.53
2018-12-27T12:22:58.341Z,26.70
2018-12-27T12:25:26.692Z,24.33
2018-12-27T12:27:54.886Z,21.90
2018-12-27T12:30:23.071Z,22.70
2018-12-27T12:32:51.955Z,23.53
2018-12-27T12:35:20.044Z,24.37
2018-12-27T12:37:49.596Z,22.50
2018-12-27T12:40:17.687Z,22.97
2018-12-27T12:42:46.265Z,28.57
2018-12-27T12:45:14.440Z,27.13
2018-12-27T12:47:43.457Z,44.33
2018-12-27T12:50:12.036Z,58.97
2018-12-27T12:52:40.308Z,25.73
2018-12-27T12:55:08.515Z,26.53
2018-12-27T12:57:36.722Z,25.93
2018-12-27T13:00:07.613Z,24.17
2018-12-27T13:02:35.772Z,35.97
2018-12-27T13:05:04.384Z,43.60
2018-12-27T13:07:33.124Z,27.33
2018-12-27T13:10:01.339Z,29.20
2018-12-27T13:12:29.484Z,42.30
2018-12-27T13:14:57.636Z,32.40
2018-12-27T13:17:25.832Z,27.83
2018-12-27T13:19:54.759Z,28.10
2018-12-27T13:22:22.914Z,32.10
2018-12-27T13:24:51.140Z,30.90
2018-12-27T13:27:19.387Z,26.60
2018-12-27T13:29:47.611Z,25.67
2018-12-27T13:32:15.737Z,24.20
2018-12-27T13:34:44.067Z,25.77
2018-12-27T13:37:12.473Z,27.67
2018-12-27T13:39:40.762Z,28.60
2018-12-27T13:42:09.364Z,20.93
2018-12-27T13:44:37.691Z,25.73
2018-12-27T13:47:06.350Z,18.83
2018-12-27T13:49:34.600Z,20.93
2018-12-27T13:52:02.846Z,15.30
2018-12-27T13:54:31.138Z,20.90
2018-12-27T13:56:59.608Z,17.63
2018-12-27T13:59:27.934Z,15.53
2018-12-27T14:01:56.173Z,11.57
2018-12-27T14:04:24.392Z,12.43
2018-12-27T14:06:52.463Z,10.63
2018-12-27T14:09:21.129Z,6.67
2018-12-27T14:11:49.270Z,8.57
2018-12-27T14:14:17.532Z,6.43
2018-12-27T14:16:45.839Z,5.63
2018-12-27T14:19:14.097Z,7.67
2018-12-27T14:21:42.637Z,7.27
2018-12-27T14:24:10.806Z,8.70
2018-12-27T14:26:39.020Z,8.57
2018-12-27T14:29:07.142Z,10.50
2018-12-27T14:31:35.392Z,10.60
2018-12-27T14:34:03.957Z,9.90
2018-12-27T14:36:32.252Z,11.37
2018-12-27T14:39:00.481Z,15.23
2018-12-27T14:41:28.730Z,13.37
2018-12-27T14:43:57.002Z,17.20
2018-12-27T14:46:25.088Z,17.97
2018-12-27T14:48:53.299Z,21.03
2018-12-27T14:51:21.410Z,15.17
2018-12-27T14:53:49.659Z,18.53
2018-12-27T14:56:20.313Z,15.90
2018-12-27T14:58:48.740Z,17.33
2018-12-27T15:01:16.878Z,24.47
2018-12-27T15:03:45.123Z,18.83
2018-12-27T15:06:13.265Z,17.83
2018-12-27T15:08:41.527Z,25.37
2018-12-27T15:11:09.676Z,21.20
2018-12-27T15:13:37.958Z,19.17
2018-12-27T15:16:06.161Z,19.73
2018-12-27T15:18:34.330Z,21.27
2018-12-27T15:21:02.912Z,20.37
2018-12-27T15:23:31.144Z,20.17
2018-12-27T15:25:59.249Z,23.53
2018-12-27T15:28:27.491Z,22.23
2018-12-27T15:30:55.881Z,18.93
2018-12-27T15:33:24.071Z,24.83
2018-12-27T15:35:52.517Z,28.67
2018-12-27T15:38:20.633Z,30.60
2018-12-27T15:40:48.849Z,32.00
2018-12-27T15:43:17.016Z,31.20
2018-12-27T15:45:45.178Z,31.93
2018-12-27T15:48:13.476Z,34.40
2018-12-27T15:50:41.497Z,31.83
2018-12-27T15:53:09.652Z,27.57
2018-12-27T15:55:38.113Z,26.23
2018-12-27T15:58:06.380Z,31.70
2018-12-27T16:00:34.798Z,27.90
2018-12-27T16:03:03.258Z,28.77
2018-12-27T16:05:32.517Z,25.57
2018-12-27T16:08:00.739Z,30.53
2018-12-27T16:10:28.886Z,38.20
2018-12-27T16:12:57.070Z,42.30
2018-12-27T16:15:25.211Z,47.77
2018-12-27T16:17:53.435Z,46.00
2018-12-27T16:20:21.625Z,47.10
2018-12-27T16:22:50.056Z,37.47
2018-12-27T16:25:18.609Z,30.57
2018-12-27T16:27:46.753Z,32.93
2018-12-27T16:30:15.171Z,30.57
2018-12-27T16:32:43.390Z,24.43
2018-12-27T16:35:11.677Z,29.87
2018-12-27T16:37:39.964Z,29.13
2018-12-27T16:40:08.390Z,28.07
2018-12-27T16:42:36.542Z,32.50
2018-12-27T16:45:05.355Z,35.20
2018-12-27T16:47:33.541Z,34.70
2018-12-27T16:50:01.854Z,34.00
2018-12-27T16:52:31.011Z,31.83
2018-12-27T16:54:59.288Z,60.20
2018-12-27T16:57:27.560Z,50.83
2018-12-27T16:59:55.661Z,43.70
2018-12-27T17:02:24.587Z,44.63
2018-12-27T17:04:52.750Z,44.33
2018-12-27T17:07:21.267Z,49.63
2018-12-27T17:09:49.474Z,53.53
2018-12-27T17:12:18.476Z,51.40
2018-12-27T17:14:46.700Z,100.77
2018-12-27T17:17:14.909Z,121.10
2018-12-27T17:19:43.012Z,143.40
2018-12-27T17:22:12.045Z,87.73
2018-12-27T17:24:41.057Z,93.20
2018-12-27T17:27:09.313Z,125.93
2018-12-27T17:29:37.481Z,143.27
2018-12-27T17:32:05.724Z,127.30
2018-12-27T17:34:33.886Z,128.83
2018-12-27T17:37:02.040Z,139.10
2018-12-27T17:39:30.637Z,94.43
2018-12-27T17:41:59.233Z,107.50
2018-12-27T17:44:27.313Z,87.73
2018-12-27T17:46:55.579Z,100.87
2018-12-27T17:49:23.670Z,120.47
2018-12-27T17:51:51.860Z,68.93
2018-12-27T17:54:20.060Z,60.57
2018-12-27T17:56:49.349Z,86.43
2018-12-27T17:59:17.679Z,69.97
2018-12-27T18:01:46.619Z,70.87
2018-12-27T18:04:14.757Z,68.20
2018-12-27T18:06:43.036Z,72.63
2018-12-27T18:09:11.177Z,78.17
2018-12-27T18:11:39.403Z,102.77
2018-12-27T18:14:07.565Z,132.07
2018-12-27T18:16:35.785Z,131.53
2018-12-27T18:19:03.885Z,133.00
2018-12-27T18:21:32.109Z,132.50
2018-12-27T18:24:00.321Z,83.27
2018-12-27T18:26:28.620Z,57.80
2018-12-27T18:28:56.817Z,53.47
2018-12-27T18:31:26.277Z,35.27
2018-12-27T18:33:54.357Z,34.80
2018-12-27T18:36:22.974Z,32.83
2018-12-27T18:38:51.116Z,30.40
2018-12-27T18:41:19.430Z,29.57
2018-12-27T18:43:48.022Z,30.40
2018-12-27T18:46:16.393Z,26.07
2018-12-27T18:48:44.650Z,27.70
2018-12-27T18:51:12.773Z,25.50
2018-12-27T18:53:40.985Z,35.57
2018-12-27T18:56:09.454Z,28.87
2018-12-27T18:58:37.815Z,25.30
2018-12-27T19:01:05.921Z,25.10
2018-12-27T19:03:34.104Z,29.00
2018-12-27T19:06:02.283Z,29.93
2018-12-27T19:08:30.568Z,35.60
2018-12-27T19:11:35.176Z,29.43
2018-12-27T19:14:03.338Z,36.90
2018-12-27T19:16:31.544Z,33.37
2018-12-27T19:18:59.760Z,79.40
2018-12-27T19:21:46.504Z,88.13
2018-12-27T19:24:15.705Z,122.07
2018-12-27T19:26:44.053Z,116.40
2018-12-27T19:29:12.270Z,115.10
2018-12-27T19:31:40.381Z,162.47
2018-12-27T19:34:09.829Z,189.30
2018-12-27T19:36:38.366Z,172.07
2018-12-27T19:39:06.680Z,180.07
2018-12-27T19:41:34.948Z,146.63
2018-12-27T19:44:03.187Z,144.97
2018-12-27T19:46:32.181Z,142.43
2018-12-27T19:49:00.812Z,123.27
2018-12-27T19:51:28.964Z,118.67
2018-12-27T19:53:57.515Z,135.87
2018-12-27T19:56:26.436Z,132.37
2018-12-27T19:58:54.665Z,121.47
2018-12-27T20:01:22.897Z,143.60
2018-12-27T20:03:50.988Z,130.80
2018-12-27T20:06:19.367Z,129.77
2018-12-27T20:08:48.131Z,144.93
2018-12-27T20:11:18.751Z,139.77
2018-12-27T20:13:47.167Z,132.47
2018-12-27T20:16:15.392Z,133.20
2018-12-27T20:18:43.603Z,111.20
2018-12-27T20:21:11.947Z,122.43
2018-12-27T20:23:39.926Z,112.97
2018-12-27T20:26:08.165Z,119.37
2018-12-27T20:28:36.306Z,114.37
2018-12-27T20:31:04.495Z,124.40
2018-12-27T20:33:33.656Z,119.47
2018-12-27T20:36:01.896Z,122.07
2018-12-27T20:38:33.066Z,120.80
2018-12-27T20:41:03.633Z,110.27
2018-12-27T20:43:32.414Z,133.50
2018-12-27T20:46:02.932Z,64.80
2018-12-27T20:48:32.823Z,77.47
2018-12-27T20:51:00.962Z,80.13
2018-12-27T20:53:32.173Z,64.10
2018-12-27T20:56:01.703Z,65.03
2018-12-27T20:58:30.014Z,62.47
2018-12-27T21:00:58.285Z,63.10
2018-12-27T21:03:28.042Z,68.23
2018-12-27T21:05:58.309Z,54.40
2018-12-27T21:08:28.640Z,49.17
2018-12-27T21:10:57.399Z,65.67
2018-12-27T21:13:30.593Z,68.73
2018-12-27T21:16:00.891Z,54.97
2018-12-27T21:18:31.357Z,70.20
2018-12-27T21:21:03.642Z,88.43
2018-12-27T21:23:33.016Z,121.70
2018-12-27T21:26:03.887Z,71.47
2018-12-27T21:28:36.957Z,115.00
2018-12-27T21:31:07.755Z,56.67
2018-12-27T21:33:37.798Z,89.27
2018-12-27T21:36:08.638Z,89.70
2018-12-27T21:38:39.293Z,72.60
2018-12-27T21:41:07.761Z,106.27
2018-12-27T21:43:36.258Z,115.93
2018-12-27T21:46:04.536Z,89.63
2018-12-27T21:48:32.715Z,90.47
2018-12-27T21:51:00.852Z,60.00
2018-12-27T21:53:28.985Z,55.80
2018-12-27T21:55:57.085Z,59.73
2018-12-27T21:58:25.194Z,67.30
2018-12-27T22:00:53.647Z,72.27
2018-12-27T22:03:22.058Z,79.93
2018-12-27T22:05:50.221Z,75.70
2018-12-27T22:08:18.380Z,106.43
2018-12-27T22:10:47.421Z,95.90
2018-12-27T22:13:15.567Z,102.87
2018-12-27T22:15:43.708Z,103.20
2018-12-27T22:18:12.232Z,108.30
2018-12-27T22:20:41.309Z,92.90
2018-12-27T22:23:09.554Z,111.37
2018-12-27T22:25:37.704Z,95.37
2018-12-27T22:28:05.933Z,112.87
2018-12-27T22:30:34.572Z,118.97
2018-12-27T22:33:02.656Z,124.03
2018-12-27T22:35:30.876Z,124.43
2018-12-27T22:37:59.105Z,111.13
2018-12-27T22:40:27.341Z,133.93
2018-12-27T22:42:55.988Z,136.67
2018-12-27T22:45:24.224Z,150.17
2018-12-27T22:47:52.263Z,152.30
2018-12-27T22:50:20.518Z,116.43
2018-12-27T22:52:48.678Z,159.43
2018-12-27T22:55:17.017Z,183.03
2018-12-27T22:57:45.314Z,174.30
2018-12-27T23:00:21.064Z,186.43
2018-12-27T23:02:51.025Z,189.47
2018-12-27T23:05:22.281Z,144.43
2018-12-27T23:07:51.487Z,166.30
2018-12-27T23:10:19.728Z,177.47
2018-12-27T23:12:47.812Z,179.20
2018-12-27T23:15:16.017Z,173.97
2018-12-27T23:17:44.536Z,173.60
2018-12-27T23:20:12.823Z,174.60
2018-12-27T23:22:40.961Z,162.70
2018-12-27T23:25:09.172Z,160.13
2018-12-27T23:27:38.284Z,179.33
2018-12-27T23:30:07.381Z,161.03
2018-12-27T23:32:35.509Z,166.43
2018-12-27T23:35:03.980Z,164.30
2018-12-27T23:37:32.148Z,176.60
2018-12-27T23:40:00.551Z,169.80
2018-12-27T23:42:28.819Z,170.03
2018-12-27T23:44:57.040Z,158.73
2018-12-27T23:47:25.157Z,163.33
2018-12-27T23:49:53.394Z,167.10
2018-12-27T23:52:21.487Z,159.07
2018-12-27T23:54:49.689Z,167.17
2018-12-27T23:57:17.837Z,185.90
2018-12-27T23:59:46.067Z,173.03
